Time;durP1;ratioP1;P1;durP2;ratioP2;P2;SDS_P1;SDS_P2;PMS_P1;PMS_P2;Temp;Humidity;BMP_temperature;BMP_pressure;BME280_temperature;BME280_humidity;BME280_pressure;Samples;Min_cycle;Max_cycle;Signal;HPM_P1;HPM_P2
2022/04/22 00:02:22;;;;;;;15.77;8.47;;;9.70;99.90;;;;;;4903285;29;20500;-75
2022/04/22 00:04:48;;;;;;;14.87;8.77;;;9.70;99.90;;;;;;4904268;29;20210;-76
2022/04/22 00:07:15;;;;;;;18.10;9.60;;;9.60;99.90;;;;;;4904070;29;20207;-78
2022/04/22 00:09:42;;;;;;;17.57;9.20;;;9.50;99.90;;;;;;4905788;29;20254;-77
2022/04/22 00:12:09;;;;;;;13.27;8.90;;;9.60;99.90;;;;;;4893221;29;20242;-77
2022/04/22 00:14:36;;;;;;;20.13;9.70;;;9.60;99.90;;;;;;4900699;29;20198;-75
2022/04/22 00:17:03;;;;;;;17.07;10.20;;;9.60;99.90;;;;;;4905337;29;20215;-75
2022/04/22 00:19:30;;;;;;;17.40;10.13;;;9.60;99.90;;;;;;4899808;29;20230;-76
2022/04/22 00:21:57;;;;;;;16.00;10.13;;;9.60;99.90;;;;;;4905874;29;20200;-74
2022/04/22 00:24:23;;;;;;;21.30;10.87;;;9.60;99.90;;;;;;4901531;29;20269;-77
2022/04/22 00:26:50;;;;;;;19.83;10.03;;;9.60;99.90;;;;;;4903974;29;20238;-75
2022/04/22 00:29:16;;;;;;;19.77;10.53;;;9.60;99.90;;;;;;4899292;29;20317;-75
2022/04/22 00:31:43;;;;;;;18.70;10.93;;;9.50;99.90;;;;;;4899773;29;20225;-75
2022/04/22 00:34:10;;;;;;;23.53;11.63;;;9.50;99.90;;;;;;4896640;29;20227;-76
2022/04/22 00:36:36;;;;;;;22.17;11.00;;;9.50;99.90;;;;;;4896695;29;20928;-75
2022/04/22 00:39:03;;;;;;;19.87;11.00;;;9.50;99.90;;;;;;4892915;29;20214;-75
2022/04/22 00:41:30;;;;;;;20.73;10.87;;;9.50;99.90;;;;;;4902150;29;20215;-75
2022/04/22 00:43:57;;;;;;;22.70;11.23;;;9.40;99.90;;;;;;4901443;29;20266;-78
2022/04/22 00:46:23;;;;;;;19.10;10.13;;;9.40;99.90;;;;;;4900933;29;20207;-74
2022/04/22 00:48:50;;;;;;;22.50;11.17;;;9.40;99.90;;;;;;4899021;29;20204;-75
2022/04/22 00:51:18;;;;;;;19.50;10.67;;;9.30;99.90;;;;;;4901223;29;20226;-77
2022/04/22 00:53:49;;;;;;;19.40;11.50;;;9.40;99.90;;;;;;4901367;29;20203;-77
2022/04/22 00:56:16;;;;;;;19.40;11.03;;;9.40;99.90;;;;;;4903519;29;20203;-76
2022/04/22 00:58:44;;;;;;;21.43;11.20;;;9.30;99.90;;;;;;4917827;29;20238;-74
2022/04/22 01:01:12;;;;;;;24.30;11.97;;;9.30;99.90;;;;;;4898984;29;20219;-78
2022/04/22 01:03:40;;;;;;;19.20;11.67;;;9.30;99.90;;;;;;4903467;29;20241;-75
2022/04/22 01:11:39;;;;;;;22.97;12.17;;;9.20;99.90;;;;;;4894869;29;20228;-77
2022/04/22 01:14:07;;;;;;;22.23;12.40;;;9.30;99.90;;;;;;4900077;29;20202;-75
2022/04/22 01:16:34;;;;;;;20.87;11.53;;;9.20;99.90;;;;;;4901582;29;20223;-75
2022/04/22 01:19:01;;;;;;;20.77;12.10;;;9.20;99.90;;;;;;4918489;29;20226;-75
2022/04/22 01:21:27;;;;;;;22.30;11.37;;;9.20;99.90;;;;;;4903478;29;20896;-75
2022/04/22 01:23:54;;;;;;;24.93;12.40;;;9.20;99.90;;;;;;4900469;29;20228;-75
2022/04/22 01:26:20;;;;;;;22.57;11.50;;;9.10;99.90;;;;;;4888709;29;20218;-76
2022/04/22 01:28:48;;;;;;;22.87;12.80;;;9.00;99.90;;;;;;4898326;29;20208;-75
2022/04/22 01:31:15;;;;;;;23.80;12.47;;;9.00;99.90;;;;;;4895839;29;20274;-75
2022/04/22 01:33:41;;;;;;;20.27;12.27;;;8.90;99.90;;;;;;4896571;29;20193;-76
2022/04/22 01:36:08;;;;;;;24.70;12.57;;;8.90;99.90;;;;;;4901930;29;20209;-77
2022/04/22 01:38:35;;;;;;;21.63;12.37;;;8.90;99.90;;;;;;4901362;29;20591;-77
2022/04/22 01:41:02;;;;;;;22.83;12.83;;;9.00;99.90;;;;;;4901177;29;20228;-75
2022/04/22 01:43:29;;;;;;;22.17;11.97;;;8.90;99.90;;;;;;4903387;29;20690;-76
2022/04/22 01:45:55;;;;;;;25.60;12.97;;;9.00;99.90;;;;;;4902984;29;20213;-77
2022/04/22 01:48:22;;;;;;;23.60;12.60;;;9.00;99.90;;;;;;4903961;29;20582;-76
2022/04/22 01:50:49;;;;;;;25.47;12.67;;;8.90;99.90;;;;;;4903996;29;20227;-76
2022/04/22 01:53:15;;;;;;;22.80;12.27;;;8.90;99.90;;;;;;4905878;29;20198;-75
2022/04/22 01:55:42;;;;;;;21.63;12.87;;;8.90;99.90;;;;;;4905794;29;20212;-76
2022/04/22 01:58:09;;;;;;;27.23;12.63;;;8.90;99.90;;;;;;4904508;29;20329;-77
2022/04/22 02:00:36;;;;;;;22.80;12.87;;;8.90;99.90;;;;;;4905315;29;20229;-76
2022/04/22 02:03:02;;;;;;;21.23;12.07;;;8.80;99.90;;;;;;4901930;29;20215;-79
2022/04/22 02:05:29;;;;;;;24.87;13.33;;;8.80;99.90;;;;;;4905030;29;20213;-77
2022/04/22 02:07:56;;;;;;;26.60;13.40;;;8.80;99.90;;;;;;4901370;29;20209;-76
2022/04/22 02:10:22;;;;;;;25.93;13.03;;;8.90;99.90;;;;;;4898778;29;20226;-75
2022/04/22 02:12:49;;;;;;;24.97;13.33;;;8.90;99.90;;;;;;4908434;29;20227;-77
2022/04/22 02:15:18;;;;;;;23.43;13.33;;;8.80;99.90;;;;;;4906039;29;20209;-74
2022/04/22 02:17:45;;;;;;;22.57;12.63;;;8.80;99.90;;;;;;4902064;29;20687;-77
2022/04/22 02:20:12;;;;;;;24.77;13.67;;;8.80;99.90;;;;;;4903787;29;20220;-75
2022/04/22 02:22:39;;;;;;;22.83;12.37;;;8.70;99.90;;;;;;4905917;29;20284;-75
2022/04/22 02:25:06;;;;;;;25.33;13.37;;;8.80;99.90;;;;;;4905662;29;20199;-75
2022/04/22 02:30:19;;;;;;;23.67;12.93;;;8.80;99.90;;;;;;4904378;29;20271;-75
2022/04/22 02:32:46;;;;;;;25.87;13.27;;;8.80;99.90;;;;;;4914830;29;20262;-75
2022/04/22 02:35:13;;;;;;;26.10;13.00;;;8.90;99.90;;;;;;4904024;29;20204;-76
2022/04/22 02:37:40;;;;;;;22.97;12.33;;;8.90;99.90;;;;;;4913567;29;20205;-78
2022/04/22 02:40:08;;;;;;;23.80;12.37;;;8.90;99.90;;;;;;4913229;29;20237;-75
2022/04/22 02:45:29;;;;;;;22.07;12.50;;;8.90;99.90;;;;;;4899697;29;20256;-73
2022/04/22 02:47:56;;;;;;;24.93;12.60;;;8.90;99.90;;;;;;4915089;29;20264;-76
2022/04/22 02:50:23;;;;;;;25.23;12.47;;;8.90;99.90;;;;;;4902444;29;20225;-76
2022/04/22 02:52:50;;;;;;;20.60;12.37;;;8.90;99.90;;;;;;4900753;29;20644;-76
2022/04/22 02:55:17;;;;;;;26.03;13.23;;;8.70;99.90;;;;;;4902270;29;22626;-74
2022/04/22 02:57:44;;;;;;;21.57;11.53;;;8.70;99.90;;;;;;4899034;29;20197;-75
2022/04/22 03:00:13;;;;;;;24.87;13.20;;;8.80;99.90;;;;;;4898176;29;20249;-76
2022/04/22 03:02:41;;;;;;;21.60;11.83;;;8.80;99.90;;;;;;4898813;29;20225;-77
2022/04/22 03:05:11;;;;;;;19.90;11.63;;;8.90;99.90;;;;;;4905859;29;20200;-75
2022/04/22 03:07:38;;;;;;;24.57;12.83;;;8.80;99.90;;;;;;4916875;29;20222;-75
2022/04/22 03:10:06;;;;;;;23.30;12.93;;;8.80;99.90;;;;;;4901819;29;20257;-76
2022/04/22 03:12:34;;;;;;;23.20;11.97;;;8.80;99.90;;;;;;4900830;29;20220;-76
2022/04/22 03:15:01;;;;;;;22.87;12.33;;;8.80;99.90;;;;;;4902848;29;20204;-75
2022/04/22 03:17:28;;;;;;;23.57;12.37;;;8.80;99.90;;;;;;4902454;29;20217;-76
2022/04/22 03:19:55;;;;;;;21.03;11.77;;;8.80;99.90;;;;;;4897477;29;20290;-76
2022/04/22 03:22:21;;;;;;;21.63;12.37;;;8.90;99.90;;;;;;4899087;29;20204;-77
2022/04/22 03:24:48;;;;;;;23.20;12.83;;;8.80;99.90;;;;;;4904991;29;20290;-76
2022/04/22 03:27:15;;;;;;;22.07;12.53;;;8.80;99.90;;;;;;4904688;29;20717;-79
2022/04/22 03:29:42;;;;;;;24.43;12.33;;;8.80;99.90;;;;;;4901991;29;20234;-76
2022/04/22 03:32:11;;;;;;;20.33;11.57;;;8.70;99.90;;;;;;4902080;29;20254;-75
2022/04/22 03:34:38;;;;;;;24.50;12.67;;;8.80;99.90;;;;;;4896602;29;20201;-75
2022/04/22 03:37:06;;;;;;;21.60;12.00;;;8.80;99.90;;;;;;4895690;29;20199;-75
2022/04/22 03:39:32;;;;;;;22.50;11.97;;;8.80;99.90;;;;;;4895507;29;20220;-75
2022/04/22 03:41:59;;;;;;;22.07;12.63;;;8.90;99.90;;;;;;4895379;29;20692;-75
2022/04/22 03:44:26;;;;;;;19.03;11.00;;;8.90;99.90;;;;;;4895561;29;20208;-75
2022/04/22 03:46:53;;;;;;;22.40;11.83;;;8.90;99.90;;;;;;4892942;29;20204;-75
2022/04/22 03:49:20;;;;;;;22.33;11.80;;;8.80;99.90;;;;;;4890563;29;20228;-75
2022/04/22 03:51:47;;;;;;;21.10;12.13;;;8.80;99.90;;;;;;4897110;29;20622;-76
2022/04/22 03:54:18;;;;;;;21.43;12.23;;;8.70;99.90;;;;;;4900013;29;20209;-75
2022/04/22 03:59:30;;;;;;;20.03;11.43;;;8.90;99.90;;;;;;4899009;29;20503;-75
2022/04/22 04:01:57;;;;;;;21.47;12.20;;;8.90;99.90;;;;;;4898524;29;20713;-76
2022/04/22 04:04:24;;;;;;;17.43;10.50;;;8.90;99.90;;;;;;4895165;29;20606;-79
2022/04/22 04:06:50;;;;;;;19.83;11.00;;;8.80;99.90;;;;;;4902762;29;20686;-75
2022/04/22 04:17:38;;;;;;;18.63;11.17;;;8.70;99.90;;;;;;4893525;29;20220;-76
2022/04/22 04:25:36;;;;;;;20.20;11.60;;;8.60;99.90;;;;;;4898649;29;20237;-76
2022/04/22 04:28:04;;;;;;;23.47;11.17;;;8.60;99.90;;;;;;4901130;29;20210;-75
2022/04/22 04:30:30;;;;;;;19.60;10.97;;;8.70;99.90;;;;;;4899055;29;20258;-75
2022/04/22 04:32:57;;;;;;;20.93;10.87;;;8.80;99.90;;;;;;4892701;29;20979;-75
2022/04/22 04:35:24;;;;;;;20.87;10.37;;;8.90;99.90;;;;;;4898286;29;20241;-75
2022/04/22 04:37:51;;;;;;;21.30;10.73;;;8.90;99.90;;;;;;4896747;29;20206;-75
2022/04/22 04:40:18;;;;;;;17.80;10.80;;;8.90;99.90;;;;;;4897048;29;20275;-75
2022/04/22 04:42:44;;;;;;;20.00;10.87;;;9.00;99.90;;;;;;4898092;29;20233;-75
2022/04/22 04:45:11;;;;;;;20.43;10.53;;;8.90;99.90;;;;;;4897993;29;20207;-76
2022/04/22 04:47:41;;;;;;;23.20;10.87;;;9.00;99.90;;;;;;4895867;29;20212;-76
2022/04/22 04:50:09;;;;;;;20.83;10.40;;;9.10;99.90;;;;;;4896716;29;20220;-76
2022/04/22 04:52:37;;;;;;;18.60;10.43;;;9.10;99.90;;;;;;4902727;29;20228;-77
2022/04/22 04:55:09;;;;;;;17.23;9.93;;;9.20;99.90;;;;;;4900264;29;20210;-77
2022/04/22 04:57:36;;;;;;;17.03;9.73;;;9.30;99.90;;;;;;4899740;29;20228;-77
2022/04/22 05:00:06;;;;;;;20.43;10.03;;;9.40;99.90;;;;;;4897231;29;20227;-75
2022/04/22 05:02:33;;;;;;;18.87;10.10;;;9.30;99.90;;;;;;4912139;29;20358;-76
2022/04/22 05:05:00;;;;;;;17.63;9.37;;;9.40;99.90;;;;;;4916710;29;20589;-76
2022/04/22 05:07:27;;;;;;;16.20;9.13;;;9.40;99.90;;;;;;4899785;29;20220;-75
2022/04/22 05:09:54;;;;;;;16.73;9.77;;;9.50;99.90;;;;;;4895124;29;20234;-76
2022/04/22 05:12:20;;;;;;;17.30;9.70;;;9.50;99.90;;;;;;4900382;29;20231;-77
2022/04/22 05:14:47;;;;;;;15.77;8.93;;;9.40;99.90;;;;;;4894358;29;20228;-75
2022/04/22 05:17:14;;;;;;;16.73;8.90;;;9.50;99.90;;;;;;4897311;29;20244;-75
2022/04/22 05:19:41;;;;;;;15.43;8.87;;;9.60;99.90;;;;;;4899819;29;20244;-76
2022/04/22 05:22:07;;;;;;;16.63;9.20;;;9.70;99.90;;;;;;4900827;29;20646;-77
2022/04/22 05:24:37;;;;;;;14.40;8.73;;;9.60;99.90;;;;;;4895127;29;20202;-74
2022/04/22 05:27:04;;;;;;;15.00;9.37;;;9.70;99.90;;;;;;4892512;29;20213;-75
2022/04/22 05:35:02;;;;;;;15.50;9.57;;;10.00;99.90;;;;;;4894338;29;20199;-79
2022/04/22 05:37:48;;;;;;;15.17;8.70;;;10.10;99.90;;;;;;4894714;29;20207;-71
2022/04/22 05:40:18;;;;;;;15.77;8.63;;;10.20;99.90;;;;;;4892550;29;20302;-75
2022/04/22 05:42:48;;;;;;;14.77;8.53;;;10.30;99.90;;;;;;4893182;29;20215;-71
2022/04/22 05:45:16;;;;;;;12.73;7.93;;;10.50;99.90;;;;;;4893793;29;20255;-71
2022/04/22 05:47:44;;;;;;;16.77;8.70;;;10.40;99.90;;;;;;4894451;29;20206;-72
2022/04/22 05:50:17;;;;;;;12.63;7.40;;;10.60;99.90;;;;;;4890590;29;20235;-73
2022/04/22 05:52:44;;;;;;;15.33;8.03;;;10.70;99.90;;;;;;4881496;29;20998;-72
2022/04/22 05:55:13;;;;;;;12.27;7.43;;;10.80;99.90;;;;;;4890683;29;20235;-75
2022/04/22 05:57:40;;;;;;;14.20;8.07;;;10.80;99.90;;;;;;4889962;29;20202;-71
2022/04/22 06:00:21;;;;;;;11.20;7.30;;;10.90;99.90;;;;;;4886915;29;20222;-75
2022/04/22 06:02:48;;;;;;;12.90;7.93;;;11.00;99.90;;;;;;4889696;29;20635;-75
2022/04/22 06:05:17;;;;;;;12.00;7.47;;;11.10;99.90;;;;;;4890723;29;20207;-74
2022/04/22 06:07:44;;;;;;;12.60;7.60;;;11.20;99.90;;;;;;4891087;29;20209;-73
2022/04/22 06:10:31;;;;;;;12.03;7.43;;;11.30;99.90;;;;;;4893957;29;20477;-74
2022/04/22 06:13:02;;;;;;;13.20;7.60;;;11.20;99.90;;;;;;4892111;29;20228;-73
2022/04/22 06:15:29;;;;;;;10.30;7.07;;;11.30;99.90;;;;;;4891420;29;20292;-76
2022/04/22 06:17:57;;;;;;;13.17;7.73;;;11.40;99.90;;;;;;4889898;29;20205;-74
2022/04/22 06:20:25;;;;;;;12.27;7.00;;;11.40;99.90;;;;;;4892327;29;20240;-72
2022/04/22 06:22:52;;;;;;;11.40;7.20;;;11.40;99.90;;;;;;4894780;29;20242;-73
2022/04/22 06:25:19;;;;;;;11.07;7.10;;;11.50;99.90;;;;;;4892981;29;21619;-72
2022/04/22 06:27:45;;;;;;;12.07;7.03;;;11.50;99.90;;;;;;4912839;29;20645;-74
2022/04/22 06:30:14;;;;;;;11.27;7.13;;;11.70;99.90;;;;;;4896375;29;20223;-75
2022/04/22 06:32:46;;;;;;;11.23;7.37;;;11.70;99.90;;;;;;4891656;29;20963;-75
2022/04/22 06:35:14;;;;;;;11.17;7.43;;;11.80;99.90;;;;;;4893266;29;20205;-72
2022/04/22 06:37:43;;;;;;;13.83;7.20;;;11.80;99.90;;;;;;4891477;29;20210;-73
2022/04/22 06:45:48;;;;;;;10.50;7.03;;;12.00;99.90;;;;;;4892822;29;20205;-74
2022/04/22 06:48:16;;;;;;;11.23;7.37;;;12.10;99.90;;;;;;4908740;29;20231;-74
2022/04/22 06:51:06;;;;;;;10.73;6.83;;;11.90;99.90;;;;;;4893076;29;20230;-72
2022/04/22 06:53:34;;;;;;;9.43;6.10;;;11.90;99.90;;;;;;4895154;29;20224;-72
2022/04/22 06:56:02;;;;;;;10.73;6.70;;;12.00;99.90;;;;;;4893332;29;20204;-73
2022/04/22 06:58:37;;;;;;;13.60;6.80;;;12.10;99.90;;;;;;4891346;29;20205;-73
2022/04/22 07:01:04;;;;;;;9.90;6.83;;;12.30;99.90;;;;;;4894806;29;20290;-73
2022/04/22 07:03:51;;;;;;;10.90;6.90;;;12.40;99.90;;;;;;4906005;29;20657;-73
2022/04/22 07:06:18;;;;;;;10.17;6.80;;;12.40;99.90;;;;;;4892549;29;20251;-81
2022/04/22 07:08:46;;;;;;;10.63;7.20;;;12.60;99.90;;;;;;4892185;29;20293;-80
2022/04/22 07:11:26;;;;;;;11.07;6.50;;;12.80;99.90;;;;;;4892576;29;20211;-81
2022/04/22 07:13:54;;;;;;;12.20;6.90;;;13.10;99.90;;;;;;4894893;29;20227;-81
2022/04/22 07:16:21;;;;;;;11.10;6.27;;;13.30;99.90;;;;;;4898489;29;20206;-80
2022/04/22 07:18:48;;;;;;;9.53;6.03;;;13.40;99.90;;;;;;4892510;29;20278;-83
2022/04/22 07:21:15;;;;;;;9.00;6.10;;;13.60;99.90;;;;;;4899695;29;20199;-78
2022/04/22 07:23:42;;;;;;;9.17;6.30;;;13.90;99.90;;;;;;4897492;29;20252;-78
2022/04/22 07:26:10;;;;;;;11.27;6.80;;;14.10;99.90;;;;;;4892895;29;20259;-75
2022/04/22 07:28:38;;;;;;;8.83;5.83;;;13.90;99.90;;;;;;4897743;29;20204;-79
2022/04/22 07:31:05;;;;;;;11.23;6.67;;;13.90;99.90;;;;;;4898000;29;20428;-73
2022/04/22 07:33:32;;;;;;;8.57;5.90;;;14.00;99.90;;;;;;4892788;29;20713;-74
2022/04/22 07:36:00;;;;;;;10.07;7.00;;;14.00;99.90;;;;;;4893958;29;20199;-75
2022/04/22 07:38:28;;;;;;;10.50;6.57;;;14.00;99.90;;;;;;4907564;29;20236;-74
2022/04/22 07:40:55;;;;;;;9.80;6.50;;;14.00;99.90;;;;;;4890809;29;20254;-76
2022/04/22 07:48:57;;;;;;;12.50;6.10;;;14.10;99.90;;;;;;4899029;29;20213;-78
2022/04/22 07:51:25;;;;;;;8.20;6.20;;;14.30;99.90;;;;;;4892721;29;20204;-79
2022/04/22 07:53:55;;;;;;;9.87;6.67;;;14.30;99.90;;;;;;4888414;29;20220;-78
2022/04/22 07:56:22;;;;;;;11.10;6.53;;;14.30;99.90;;;;;;4891345;29;20210;-75
2022/04/22 07:58:48;;;;;;;16.97;7.57;;;14.40;99.90;;;;;;4886583;29;20201;-76
2022/04/22 08:01:15;;;;;;;10.37;6.20;;;14.30;99.90;;;;;;4887933;29;20215;-77
2022/04/22 08:03:42;;;;;;;15.13;6.97;;;14.30;99.90;;;;;;4885394;29;20483;-76
2022/04/22 08:06:12;;;;;;;9.43;6.10;;;14.30;99.90;;;;;;4886949;29;20660;-76
2022/04/22 08:08:39;;;;;;;9.13;6.30;;;14.50;99.90;;;;;;4884727;29;20202;-78
2022/04/22 08:11:06;;;;;;;9.60;6.37;;;14.40;99.90;;;;;;4885471;29;20201;-78
2022/04/22 08:13:34;;;;;;;13.67;7.57;;;14.40;99.90;;;;;;4883428;29;20238;-75
2022/04/22 08:16:01;;;;;;;10.27;7.00;;;14.40;99.90;;;;;;4895469;29;20697;-77
2022/04/22 08:18:29;;;;;;;11.30;7.43;;;14.30;99.90;;;;;;4898151;29;20199;-75
2022/04/22 08:20:55;;;;;;;10.63;6.80;;;14.40;99.90;;;;;;4907197;29;20299;-77
2022/04/22 08:23:22;;;;;;;10.33;7.17;;;14.50;99.90;;;;;;4896993;29;20207;-75
2022/04/22 08:25:49;;;;;;;10.13;6.90;;;14.30;99.90;;;;;;4897979;29;20228;-77
2022/04/22 08:28:16;;;;;;;10.47;6.87;;;14.30;99.90;;;;;;4910968;29;20211;-80
2022/04/22 08:30:43;;;;;;;11.90;7.10;;;14.40;99.90;;;;;;4901759;29;20232;-77
2022/04/22 08:33:09;;;;;;;11.83;7.60;;;14.60;99.90;;;;;;4895523;29;20242;-76
2022/04/22 08:35:36;;;;;;;10.40;6.80;;;14.50;99.90;;;;;;4896791;29;20580;-75
2022/04/22 08:38:06;;;;;;;12.77;7.33;;;14.50;99.90;;;;;;4896150;29;20196;-76
2022/04/22 08:40:39;;;;;;;11.10;6.87;;;14.70;99.90;;;;;;4895805;29;20227;-75
2022/04/22 08:43:06;;;;;;;15.93;7.03;;;14.70;99.90;;;;;;4892392;29;20207;-77
2022/04/22 08:45:33;;;;;;;11.07;7.30;;;14.80;99.90;;;;;;4893883;29;20214;-78
2022/04/22 08:50:50;;;;;;;11.63;6.87;;;14.90;99.90;;;;;;4892247;29;20223;-75
2022/04/22 08:53:22;;;;;;;11.13;7.37;;;15.20;99.90;;;;;;4894721;29;20234;-76
2022/04/22 08:55:55;;;;;;;13.83;7.20;;;15.40;99.90;;;;;;4892117;29;20204;-78
2022/04/22 08:58:24;;;;;;;13.07;6.60;;;15.70;99.90;;;;;;4893858;29;20453;-76
2022/04/22 09:00:51;;;;;;;12.00;7.07;;;15.70;99.90;;;;;;4892036;29;20716;-77
2022/04/22 09:03:19;;;;;;;12.57;7.53;;;15.80;99.90;;;;;;4893871;29;20207;-77
2022/04/22 09:05:46;;;;;;;12.03;7.10;;;16.00;99.90;;;;;;4893142;29;20204;-77
2022/04/22 09:08:13;;;;;;;10.47;7.00;;;15.90;99.90;;;;;;4893532;29;20554;-75
2022/04/22 09:10:42;;;;;;;11.13;7.20;;;15.90;99.90;;;;;;4894239;29;20231;-77
2022/04/22 09:13:11;;;;;;;11.93;7.13;;;15.80;99.90;;;;;;4894197;29;20715;-74
2022/04/22 09:15:39;;;;;;;10.43;7.10;;;15.90;99.90;;;;;;4893105;29;20395;-76
2022/04/22 09:18:26;;;;;;;10.83;6.93;;;15.80;99.90;;;;;;4895415;29;20263;-74
2022/04/22 09:21:01;;;;;;;11.27;6.83;;;16.10;99.90;;;;;;4892614;29;20220;-76
2022/04/22 09:23:34;;;;;;;12.17;7.20;;;16.10;99.90;;;;;;4895808;29;20290;-75
2022/04/22 09:26:03;;;;;;;11.10;7.10;;;16.00;99.90;;;;;;4897783;29;20563;-74
2022/04/22 09:28:30;;;;;;;13.10;6.93;;;16.20;99.90;;;;;;4890010;29;20208;-76
2022/04/22 09:31:01;;;;;;;10.87;7.20;;;16.30;99.90;;;;;;4891628;29;20236;-75
2022/04/22 09:33:44;;;;;;;10.80;7.10;;;16.50;99.90;;;;;;4891244;29;20280;-79
2022/04/22 09:44:59;;;;;;;10.67;6.97;;;16.70;99.90;;;;;;4893743;29;20214;-77
2022/04/22 09:47:30;;;;;;;9.07;6.60;;;16.80;99.90;;;;;;4893602;29;20889;-76
2022/04/22 09:50:05;;;;;;;9.50;6.33;;;16.70;99.90;;;;;;4891711;29;20643;-75
2022/04/22 09:52:34;;;;;;;11.73;7.10;;;16.50;99.90;;;;;;4893333;29;20303;-77
2022/04/22 09:55:09;;;;;;;10.03;6.80;;;16.70;99.90;;;;;;4895632;29;20587;-76
2022/04/22 09:57:54;;;;;;;10.03;6.60;;;16.60;99.90;;;;;;4894100;29;20199;-75
2022/04/22 10:00:22;;;;;;;12.13;7.73;;;16.70;99.90;;;;;;4894669;29;20215;-76
2022/04/22 10:02:50;;;;;;;11.33;7.10;;;16.80;99.90;;;;;;4901521;29;20204;-77
2022/04/22 10:05:25;;;;;;;9.57;6.37;;;16.90;99.90;;;;;;4899298;29;20211;-75
2022/04/22 10:07:57;;;;;;;9.97;7.03;;;17.00;99.90;;;;;;4900983;29;20219;-78
2022/04/22 10:10:37;;;;;;;9.17;6.27;;;16.90;99.90;;;;;;4894256;29;20226;-75
2022/04/22 10:13:07;;;;;;;9.93;6.47;;;16.80;99.90;;;;;;4894284;29;20679;-77
2022/04/22 10:15:37;;;;;;;9.20;6.50;;;16.80;99.90;;;;;;4897302;29;20267;-76
2022/04/22 10:18:04;;;;;;;9.33;6.57;;;16.90;99.90;;;;;;4894643;29;20192;-75
2022/04/22 10:20:32;;;;;;;10.43;6.90;;;17.00;99.90;;;;;;4905237;29;20223;-74
2022/04/22 10:22:59;;;;;;;9.10;6.77;;;17.10;99.90;;;;;;4893945;29;20580;-76
2022/04/22 10:25:29;;;;;;;9.03;6.43;;;17.20;99.90;;;;;;4898836;29;20193;-76
2022/04/22 10:27:59;;;;;;;8.93;6.80;;;17.40;99.90;;;;;;4902155;29;20204;-77
2022/04/22 10:30:28;;;;;;;8.53;5.90;;;17.50;99.90;;;;;;4913374;29;20231;-76
2022/04/22 10:32:56;;;;;;;9.43;6.40;;;17.70;99.90;;;;;;4904527;29;20394;-77
2022/04/22 10:35:24;;;;;;;8.33;6.20;;;17.90;99.90;;;;;;4898622;29;20215;-76
2022/04/22 10:37:54;;;;;;;8.17;5.90;;;17.90;99.90;;;;;;4903329;29;20205;-75
2022/04/22 10:40:23;;;;;;;9.33;6.40;;;18.10;99.90;;;;;;4895848;29;21218;-75
2022/04/22 10:42:51;;;;;;;9.10;6.00;;;18.10;99.90;;;;;;4894355;29;20204;-75
2022/04/22 10:48:21;;;;;;;9.30;6.30;;;18.20;99.90;;;;;;4894328;29;20513;-76
2022/04/22 10:51:02;;;;;;;10.57;6.17;;;18.20;99.90;;;;;;4897074;29;20216;-76
2022/04/22 10:53:33;;;;;;;9.93;6.23;;;18.40;99.90;;;;;;4888426;29;20216;-78
2022/04/22 10:56:30;;;;;;;9.43;6.30;;;18.50;99.90;;;;;;4889416;29;20204;-76
2022/04/22 10:59:15;;;;;;;9.70;6.37;;;18.20;99.90;;;;;;4891643;29;20212;-76
2022/04/22 11:01:43;;;;;;;8.40;6.07;;;18.00;99.90;;;;;;4888334;29;20219;-77
2022/04/22 11:04:28;;;;;;;9.27;6.17;;;18.10;99.90;;;;;;4888727;29;20196;-76
2022/04/22 11:06:56;;;;;;;8.00;5.53;;;18.20;99.90;;;;;;4889817;29;21901;-76
2022/04/22 11:09:27;;;;;;;11.67;5.80;;;18.50;99.90;;;;;;4889915;29;20365;-76
2022/04/22 11:11:55;;;;;;;10.40;6.30;;;18.80;99.90;;;;;;4886677;29;20204;-75
2022/04/22 11:14:25;;;;;;;11.03;6.27;;;18.80;99.90;;;;;;4891343;29;20220;-78
2022/04/22 11:16:54;;;;;;;8.90;6.20;;;18.80;99.90;;;;;;4890752;29;20278;-77
2022/04/22 11:19:21;;;;;;;8.57;5.67;;;18.60;99.90;;;;;;4888125;29;20228;-76
2022/04/22 11:21:52;;;;;;;8.57;5.90;;;18.50;99.90;;;;;;4890442;29;20208;-76
2022/04/22 11:24:21;;;;;;;10.23;6.10;;;18.50;99.90;;;;;;4889307;29;20205;-77
2022/04/22 11:26:51;;;;;;;7.70;6.10;;;18.60;99.90;;;;;;4884407;29;20216;-76
2022/04/22 11:29:18;;;;;;;8.20;5.87;;;18.80;99.90;;;;;;4890082;29;20220;-75
2022/04/22 11:32:11;;;;;;;7.60;5.90;;;18.80;99.90;;;;;;4884770;29;20200;-78
2022/04/22 11:34:40;;;;;;;7.30;5.57;;;18.70;99.90;;;;;;4888203;29;20249;-75
2022/04/22 11:37:21;;;;;;;9.00;5.70;;;18.50;99.90;;;;;;4893954;29;20206;-78
2022/04/22 11:39:49;;;;;;;9.33;5.93;;;18.60;99.90;;;;;;4888063;29;20304;-75
2022/04/22 11:42:19;;;;;;;8.47;5.13;;;18.80;99.90;;;;;;4893637;29;20206;-76
2022/04/22 11:45:06;;;;;;;11.63;5.40;;;18.90;99.90;;;;;;4884924;29;20215;-74
2022/04/22 11:47:33;;;;;;;9.47;5.63;;;19.00;99.90;;;;;;4887839;29;20207;-76
2022/04/22 11:50:00;;;;;;;9.57;6.40;;;19.10;99.90;;;;;;4886819;29;20857;-75
2022/04/22 11:52:29;;;;;;;8.20;5.73;;;19.00;99.90;;;;;;4888890;29;20235;-76
2022/04/22 11:55:03;;;;;;;10.60;5.37;;;19.00;99.90;;;;;;4885951;29;20224;-79
2022/04/22 11:57:35;;;;;;;7.37;5.30;;;18.90;99.90;;;;;;4890610;29;20224;-79
2022/04/22 12:05:48;;;;;;;12.10;5.27;;;19.70;99.90;;;;;;4890873;29;20204;-79
2022/04/22 12:08:15;;;;;;;13.10;5.90;;;19.70;99.90;;;;;;4888625;29;20215;-79
2022/04/22 12:10:47;;;;;;;7.70;5.77;;;19.70;99.90;;;;;;4890170;29;20674;-76
2022/04/22 12:13:14;;;;;;;10.70;6.23;;;19.50;99.90;;;;;;4887687;29;20204;-76
2022/04/22 12:15:46;;;;;;;9.37;6.27;;;19.50;99.90;;;;;;4887209;29;20248;-77
2022/04/22 12:18:33;;;;;;;7.50;5.50;;;19.30;99.90;;;;;;4891240;29;20443;-75
2022/04/22 12:21:01;;;;;;;7.70;5.70;;;19.30;99.90;;;;;;4886209;29;20650;-78
2022/04/22 12:23:32;;;;;;;7.30;5.60;;;19.30;99.90;;;;;;4886264;29;20207;-79
2022/04/22 12:26:00;;;;;;;7.50;5.70;;;19.40;99.90;;;;;;4886727;29;20496;-76
2022/04/22 12:28:27;;;;;;;9.10;5.93;;;19.60;99.90;;;;;;4888308;29;20728;-76
2022/04/22 12:30:54;;;;;;;7.10;5.27;;;19.70;99.90;;;;;;4888630;29;20220;-76
2022/04/22 12:33:25;;;;;;;9.00;5.87;;;19.80;99.90;;;;;;4887964;29;20200;-76
2022/04/22 12:36:07;;;;;;;9.50;5.30;;;20.00;99.90;;;;;;4888560;29;20224;-78
2022/04/22 12:38:36;;;;;;;6.30;5.03;;;19.90;99.90;;;;;;4887664;29;20277;-77
2022/04/22 12:41:17;;;;;;;9.53;4.73;;;19.90;99.90;;;;;;4889190;29;20725;-77
2022/04/22 12:43:48;;;;;;;8.10;5.20;;;20.10;99.90;;;;;;4888393;29;20697;-76
2022/04/22 12:52:10;;;;;;;7.17;5.60;;;20.10;99.90;;;;;;4889657;29;20193;-76
2022/04/22 12:54:38;;;;;;;8.97;5.10;;;20.20;99.90;;;;;;4886836;29;20231;-79
2022/04/22 12:57:08;;;;;;;7.57;5.17;;;20.10;99.90;;;;;;4889823;29;20197;-77
2022/04/22 12:59:41;;;;;;;12.93;5.77;;;20.10;99.90;;;;;;4888782;29;20224;-78
2022/04/22 13:02:09;;;;;;;7.57;5.07;;;20.10;99.90;;;;;;4887808;29;20212;-76
2022/04/22 13:04:56;;;;;;;7.60;5.73;;;20.20;99.90;;;;;;4889311;29;20200;-76
2022/04/22 13:07:23;;;;;;;7.50;5.53;;;20.40;99.90;;;;;;4889759;29;20196;-75
2022/04/22 13:09:50;;;;;;;7.17;5.23;;;20.30;99.90;;;;;;4891449;29;20232;-76
2022/04/22 13:12:17;;;;;;;8.83;5.60;;;20.30;99.90;;;;;;4890595;29;20207;-77
2022/04/22 13:14:44;;;;;;;8.80;5.43;;;20.30;99.90;;;;;;4890117;29;20703;-76
2022/04/22 13:17:18;;;;;;;6.67;4.97;;;20.40;99.90;;;;;;4891683;29;20200;-76
2022/04/22 13:19:44;;;;;;;7.07;5.07;;;20.40;99.90;;;;;;4891278;29;20249;-75
2022/04/22 13:22:11;;;;;;;9.07;5.47;;;20.30;99.90;;;;;;4891149;29;20582;-77
2022/04/22 13:24:40;;;;;;;8.30;4.80;;;20.50;99.90;;;;;;4893188;29;20705;-76
2022/04/22 13:27:07;;;;;;;6.10;4.83;;;20.40;99.90;;;;;;4887833;29;20204;-78
2022/04/22 13:29:33;;;;;;;6.70;5.07;;;20.50;99.90;;;;;;4888657;29;20224;-73
2022/04/22 13:32:00;;;;;;;6.63;5.23;;;20.50;99.90;;;;;;4898818;29;20225;-76
2022/04/22 13:34:27;;;;;;;7.27;5.40;;;20.40;99.90;;;;;;4894642;29;20235;-75
2022/04/22 13:36:54;;;;;;;8.13;5.20;;;20.20;99.90;;;;;;4901438;29;20207;-73
2022/04/22 13:39:20;;;;;;;9.17;5.23;;;20.10;99.90;;;;;;4900527;29;20228;-75
2022/04/22 13:41:47;;;;;;;6.27;5.27;;;20.10;99.90;;;;;;4896778;29;20222;-76
2022/04/22 13:52:20;;;;;;;6.13;4.73;;;20.10;99.90;;;;;;4910735;29;20208;-76
2022/04/22 13:52:31;;;;;;;10.97;5.10;;;20.10;99.90;;;;;;4898582;29;20683;-76
2022/04/22 13:55:02;;;;;;;6.57;4.90;;;20.30;99.90;;;;;;4898973;29;20312;-75
2022/04/22 13:57:28;;;;;;;8.23;5.00;;;20.50;99.90;;;;;;4897387;29;20223;-77
2022/04/22 13:59:55;;;;;;;6.83;5.13;;;20.50;99.90;;;;;;4893120;29;20674;-75
2022/04/22 14:02:22;;;;;;;8.70;4.97;;;20.60;99.90;;;;;;4901384;29;20212;-76
2022/04/22 14:04:50;;;;;;;5.93;4.83;;;20.50;99.90;;;;;;4896335;29;20208;-76
2022/04/22 14:07:17;;;;;;;7.47;5.30;;;20.50;99.90;;;;;;4896871;29;20200;-76